createdAt,value
2023-02-09T00:00:02.072Z,44.10
2023-02-09T00:02:29.068Z,44.37
2023-02-09T00:04:55.667Z,43.63
2023-02-09T00:07:22.160Z,49.17
2023-02-09T00:09:48.714Z,45.17
2023-02-09T00:12:33.771Z,47.13
2023-02-09T00:15:00.339Z,42.27
2023-02-09T00:17:26.874Z,43.20
2023-02-09T00:19:56.555Z,47.20
2023-02-09T00:22:23.068Z,45.77
2023-02-09T00:24:49.621Z,47.83
2023-02-09T00:27:16.301Z,49.80
2023-02-09T00:29:42.761Z,48.07
2023-02-09T00:32:09.305Z,46.37
2023-02-09T00:34:36.835Z,47.23
2023-02-09T00:37:03.558Z,46.17
2023-02-09T00:39:30.248Z,48.47
2023-02-09T00:42:05.989Z,47.20
2023-02-09T00:44:33.198Z,45.93
2023-02-09T00:46:59.834Z,45.10
2023-02-09T00:49:26.322Z,46.60
2023-02-09T00:51:52.981Z,47.90
2023-02-09T00:54:19.529Z,47.83
2023-02-09T00:56:46.081Z,45.00
2023-02-09T00:59:12.648Z,47.53
2023-02-09T01:01:39.235Z,47.47
2023-02-09T01:04:05.820Z,48.07
2023-02-09T01:06:32.286Z,47.50
2023-02-09T01:08:58.803Z,49.10
2023-02-09T01:11:28.240Z,48.07
2023-02-09T01:13:55.298Z,47.07
2023-02-09T01:16:21.867Z,45.17
2023-02-09T01:18:48.333Z,45.47
2023-02-09T01:21:15.745Z,47.97
2023-02-09T01:23:42.213Z,46.57
2023-02-09T01:26:09.229Z,47.20
2023-02-09T01:28:36.924Z,47.67
2023-02-09T01:31:04.155Z,47.87
2023-02-09T01:33:30.729Z,44.87
2023-02-09T01:36:00.294Z,47.33
2023-02-09T01:38:26.769Z,46.87
2023-02-09T01:40:53.270Z,49.23
2023-02-09T01:43:19.762Z,49.53
2023-02-09T01:45:51.044Z,46.70
2023-02-09T01:48:18.917Z,48.70
2023-02-09T01:50:46.096Z,47.27
2023-02-09T01:53:12.771Z,47.30
2023-02-09T01:55:44.704Z,48.93
2023-02-09T01:58:12.170Z,47.07
2023-02-09T02:00:38.647Z,48.60
2023-02-09T02:03:06.110Z,48.00
2023-02-09T02:05:33.942Z,48.53
2023-02-09T02:08:04.916Z,47.23
2023-02-09T02:10:31.417Z,50.10
2023-02-09T02:12:57.901Z,48.23
2023-02-09T02:15:27.121Z,50.67
2023-02-09T02:18:13.912Z,51.23
2023-02-09T02:20:43.745Z,49.07
2023-02-09T02:23:10.507Z,47.40
2023-02-09T02:25:46.233Z,49.07
2023-02-09T02:28:12.764Z,50.83
2023-02-09T02:30:51.510Z,50.30
2023-02-09T02:33:36.769Z,49.83
2023-02-09T02:36:12.557Z,49.43
2023-02-09T02:38:40.028Z,48.60
2023-02-09T02:41:09.511Z,48.33
2023-02-09T02:43:51.320Z,49.80
2023-02-09T02:46:17.908Z,52.53
2023-02-09T02:48:45.943Z,50.07
2023-02-09T02:51:24.718Z,52.53
2023-02-09T02:53:52.152Z,48.50
2023-02-09T02:56:19.303Z,48.30
2023-02-09T02:58:45.791Z,49.80
2023-02-09T03:01:13.168Z,49.73
2023-02-09T03:03:39.706Z,49.90
2023-02-09T03:06:06.243Z,47.27
2023-02-09T03:08:48.853Z,48.10
2023-02-09T03:11:15.353Z,49.30
2023-02-09T03:14:02.096Z,49.50
2023-02-09T03:16:28.644Z,50.77
2023-02-09T03:18:58.206Z,49.70
2023-02-09T03:21:42.072Z,47.73
2023-02-09T03:24:13.296Z,48.60
2023-02-09T03:26:48.205Z,49.87
2023-02-09T03:29:14.675Z,47.87
2023-02-09T03:31:41.246Z,48.93
2023-02-09T03:34:07.756Z,49.97
2023-02-09T03:36:35.230Z,51.63
2023-02-09T03:39:02.783Z,52.17
2023-02-09T03:41:29.273Z,50.33
2023-02-09T03:44:14.569Z,48.63
2023-02-09T03:46:43.703Z,50.00
2023-02-09T03:49:10.549Z,46.53
2023-02-09T03:51:37.008Z,48.83
2023-02-09T03:54:03.978Z,49.57
2023-02-09T03:56:30.429Z,52.03
2023-02-09T03:58:56.917Z,54.13
2023-02-09T04:01:23.525Z,54.30
2023-02-09T04:03:50.356Z,51.63
2023-02-09T04:06:16.863Z,50.93
2023-02-09T04:08:43.435Z,52.17
2023-02-09T04:11:09.973Z,53.53
2023-02-09T04:13:36.493Z,52.10
2023-02-09T04:16:03.108Z,51.00
2023-02-09T04:18:29.595Z,49.87
2023-02-09T04:20:56.080Z,50.63
2023-02-09T04:23:22.530Z,52.47
2023-02-09T04:25:49.042Z,55.33
2023-02-09T04:28:15.729Z,58.10
2023-02-09T04:30:43.975Z,55.50
2023-02-09T04:33:13.712Z,54.03
2023-02-09T04:35:40.215Z,58.63
2023-02-09T04:38:06.688Z,57.67
2023-02-09T04:40:33.195Z,55.90
2023-02-09T04:42:59.691Z,59.07
2023-02-09T04:45:26.182Z,65.00
2023-02-09T04:47:52.665Z,63.57
2023-02-09T04:50:19.315Z,63.00
2023-02-09T04:52:45.783Z,66.67
2023-02-09T04:55:12.276Z,66.43
2023-02-09T04:57:57.447Z,61.07
2023-02-09T05:00:23.942Z,64.30
2023-02-09T05:02:50.505Z,61.03
2023-02-09T05:05:17.079Z,63.10
2023-02-09T05:07:43.648Z,64.50
2023-02-09T05:10:10.241Z,63.33
2023-02-09T05:12:36.789Z,64.13
2023-02-09T05:15:03.570Z,64.27
2023-02-09T05:17:31.503Z,64.23
2023-02-09T05:19:57.957Z,66.03
2023-02-09T05:22:24.461Z,60.83
2023-02-09T05:24:50.946Z,65.73
2023-02-09T05:27:17.461Z,65.10
2023-02-09T05:29:43.988Z,63.63
2023-02-09T05:32:10.551Z,65.33
2023-02-09T05:34:37.085Z,68.40
2023-02-09T05:37:03.674Z,67.37
2023-02-09T05:39:30.218Z,73.60
2023-02-09T05:42:15.468Z,68.33
2023-02-09T05:44:48.584Z,68.50
2023-02-09T05:47:15.826Z,68.57
2023-02-09T05:49:42.356Z,65.97
2023-02-09T05:52:09.108Z,68.50
2023-02-09T05:54:35.661Z,67.77
2023-02-09T05:57:02.218Z,68.27
2023-02-09T05:59:28.720Z,67.83
2023-02-09T06:01:55.246Z,69.70
2023-02-09T06:04:21.780Z,70.20
2023-02-09T06:06:48.312Z,68.37
2023-02-09T06:09:14.800Z,74.17
2023-02-09T06:11:41.286Z,74.90
2023-02-09T06:14:07.832Z,72.40
2023-02-09T06:16:34.517Z,77.87
2023-02-09T06:19:00.966Z,76.10
2023-02-09T06:21:27.456Z,75.80
2023-02-09T06:23:53.921Z,81.83
2023-02-09T06:26:20.457Z,75.20
2023-02-09T06:28:47.000Z,87.97
2023-02-09T06:31:13.601Z,86.17
2023-02-09T06:33:40.236Z,94.33
2023-02-09T06:36:07.274Z,90.63
2023-02-09T06:38:34.201Z,88.80
2023-02-09T06:41:00.750Z,96.40
2023-02-09T06:43:27.343Z,93.33
2023-02-09T06:45:53.891Z,90.07
2023-02-09T06:48:20.397Z,91.50
2023-02-09T06:50:47.304Z,88.00
2023-02-09T06:53:14.016Z,90.17
2023-02-09T06:55:40.644Z,93.10
2023-02-09T06:58:07.100Z,94.70
2023-02-09T07:00:33.557Z,94.17
2023-02-09T07:03:00.414Z,84.63
2023-02-09T07:05:26.959Z,85.30
2023-02-09T07:07:53.506Z,83.30
2023-02-09T07:10:20.068Z,79.13
2023-02-09T07:12:46.558Z,78.67
2023-02-09T07:15:13.339Z,81.00
2023-02-09T07:17:39.817Z,79.80
2023-02-09T07:20:06.595Z,78.37
2023-02-09T07:22:33.337Z,80.40
2023-02-09T07:24:59.836Z,76.87
2023-02-09T07:27:26.660Z,74.10
2023-02-09T07:29:53.193Z,75.47
2023-02-09T07:32:19.709Z,72.30
2023-02-09T07:34:46.228Z,71.07
2023-02-09T07:37:12.746Z,68.00
2023-02-09T07:39:39.565Z,66.63
2023-02-09T07:42:06.230Z,68.47
2023-02-09T07:44:33.108Z,64.10
2023-02-09T07:46:59.557Z,68.07
2023-02-09T07:49:26.054Z,64.10
2023-02-09T07:51:52.557Z,58.07
2023-02-09T07:54:19.141Z,53.77
2023-02-09T07:56:45.663Z,52.17
2023-02-09T07:59:12.139Z,54.23
2023-02-09T08:01:38.762Z,51.40
2023-02-09T08:04:05.357Z,51.30
2023-02-09T08:06:43.066Z,49.70
2023-02-09T08:09:10.061Z,51.50
2023-02-09T08:11:44.050Z,49.63
2023-02-09T08:14:13.722Z,48.47
2023-02-09T08:16:40.194Z,49.00
2023-02-09T08:19:09.138Z,45.57
2023-02-09T08:21:36.659Z,47.53
2023-02-09T08:24:03.967Z,48.23
2023-02-09T08:26:30.440Z,47.60
2023-02-09T08:28:56.999Z,46.40
2023-02-09T08:31:23.611Z,46.97
2023-02-09T08:33:50.261Z,45.33
2023-02-09T08:36:17.103Z,45.20
2023-02-09T08:38:44.687Z,43.83
2023-02-09T08:41:11.724Z,43.20
2023-02-09T08:43:38.257Z,45.63
2023-02-09T08:46:05.671Z,43.30
2023-02-09T08:48:35.623Z,43.33
2023-02-09T08:51:02.596Z,42.63
2023-02-09T08:53:29.082Z,41.97
2023-02-09T08:55:55.575Z,41.43
2023-02-09T08:58:22.068Z,41.23
2023-02-09T09:00:48.611Z,42.03
2023-02-09T09:03:15.264Z,46.53
2023-02-09T09:05:41.916Z,43.03
2023-02-09T09:08:10.575Z,42.73
2023-02-09T09:10:37.053Z,40.90
2023-02-09T09:13:03.534Z,39.90
2023-02-09T09:15:30.016Z,42.73
2023-02-09T09:17:56.505Z,40.33
2023-02-09T09:20:23.038Z,39.70
2023-02-09T09:22:49.693Z,43.23
2023-02-09T09:25:16.194Z,43.17
2023-02-09T09:27:42.728Z,40.57
2023-02-09T09:30:09.485Z,43.93
2023-02-09T09:32:36.091Z,45.13
2023-02-09T09:35:03.668Z,44.80
2023-02-09T09:37:30.331Z,44.77
2023-02-09T09:39:56.868Z,41.30
2023-02-09T09:42:29.387Z,40.67
2023-02-09T09:44:55.866Z,40.73
2023-02-09T09:47:24.799Z,39.23
2023-02-09T09:49:51.300Z,39.17
2023-02-09T09:52:17.810Z,40.63
2023-02-09T09:54:44.300Z,37.90
2023-02-09T09:57:21.651Z,38.97
2023-02-09T09:59:48.279Z,38.27
2023-02-09T10:02:33.539Z,35.80
2023-02-09T10:05:19.636Z,34.27
2023-02-09T10:08:01.419Z,31.70
2023-02-09T10:10:31.025Z,28.00
2023-02-09T10:12:57.615Z,28.53
2023-02-09T10:15:24.085Z,27.73
2023-02-09T10:17:50.622Z,29.17
2023-02-09T10:20:17.152Z,27.10
2023-02-09T10:22:44.001Z,27.50
2023-02-09T10:25:29.390Z,25.17
2023-02-09T10:27:55.887Z,25.67
2023-02-09T10:30:27.240Z,30.90
2023-02-09T10:32:53.802Z,29.40
2023-02-09T10:35:25.126Z,25.13
2023-02-09T10:37:55.268Z,22.60
2023-02-09T10:40:24.591Z,22.27
2023-02-09T10:42:57.813Z,22.70
2023-02-09T10:45:24.307Z,23.27
2023-02-09T10:48:01.421Z,22.83
2023-02-09T10:50:27.949Z,23.47
2023-02-09T10:52:56.348Z,22.47
2023-02-09T10:55:33.487Z,22.13
2023-02-09T10:58:21.195Z,23.90
2023-02-09T11:00:52.864Z,19.83
2023-02-09T11:03:23.058Z,21.70
2023-02-09T11:05:57.041Z,21.80
2023-02-09T11:08:23.522Z,22.87
2023-02-09T11:10:53.083Z,25.40
2023-02-09T11:13:21.673Z,23.13
2023-02-09T11:16:08.469Z,24.57
2023-02-09T11:18:35.011Z,24.23
2023-02-09T11:21:05.893Z,24.57
2023-02-09T11:23:38.496Z,22.93
2023-02-09T11:26:04.980Z,21.17
2023-02-09T11:28:37.840Z,23.17
2023-02-09T11:31:23.289Z,27.00
2023-02-09T11:33:53.079Z,21.43
2023-02-09T11:36:22.678Z,20.80
2023-02-09T11:38:51.542Z,17.27
2023-02-09T11:41:39.772Z,13.97
2023-02-09T11:44:06.312Z,11.37
2023-02-09T11:46:33.485Z,8.10
2023-02-09T11:49:11.251Z,8.77
2023-02-09T11:51:38.236Z,7.90
2023-02-09T11:54:17.679Z,7.80
2023-02-09T11:56:51.168Z,7.07
2023-02-09T11:59:22.213Z,6.80
2023-02-09T12:01:48.643Z,7.17
2023-02-09T12:04:22.830Z,6.57
2023-02-09T12:06:50.370Z,5.33
2023-02-09T12:09:29.136Z,6.60
2023-02-09T12:12:04.603Z,6.50
2023-02-09T12:14:35.344Z,5.23
2023-02-09T12:17:11.497Z,5.70
2023-02-09T12:19:38.313Z,5.60
2023-02-09T12:22:25.042Z,5.90
2023-02-09T12:25:25.530Z,5.73
2023-02-09T12:28:11.138Z,5.13
2023-02-09T12:30:40.819Z,5.17
2023-02-09T12:33:17.134Z,4.90
2023-02-09T12:35:43.754Z,5.17
2023-02-09T12:38:17.140Z,5.23
2023-02-09T12:40:43.871Z,6.87
2023-02-09T12:43:14.910Z,5.33
2023-02-09T12:45:42.378Z,4.63
2023-02-09T12:48:08.924Z,4.90
2023-02-09T12:50:44.602Z,5.00
2023-02-09T12:53:23.504Z,4.53
2023-02-09T12:56:23.068Z,4.80
2023-02-09T12:58:49.544Z,3.97
2023-02-09T13:01:16.291Z,4.30
2023-02-09T13:04:01.840Z,4.83
2023-02-09T13:06:37.452Z,5.23
2023-02-09T13:09:05.232Z,5.23
2023-02-09T13:11:43.516Z,4.53
2023-02-09T13:14:11.740Z,4.37
2023-02-09T13:16:57.111Z,5.00
2023-02-09T13:19:45.986Z,3.77
2023-02-09T13:22:20.149Z,4.60
2023-02-09T13:25:08.992Z,4.87
2023-02-09T13:27:35.760Z,3.73
2023-02-09T13:30:02.244Z,4.23
2023-02-09T13:32:34.882Z,4.37
2023-02-09T13:35:13.695Z,4.30
2023-02-09T13:37:47.780Z,4.63
2023-02-09T13:40:17.578Z,4.00
2023-02-09T13:42:53.326Z,4.40
2023-02-09T13:45:20.411Z,4.10
2023-02-09T13:47:46.908Z,4.50
2023-02-09T13:50:14.356Z,4.07
2023-02-09T13:52:40.851Z,4.47
2023-02-09T13:55:20.680Z,4.40
2023-02-09T13:57:50.729Z,4.93
2023-02-09T14:00:30.418Z,5.33
2023-02-09T14:02:57.826Z,5.23
2023-02-09T14:05:40.856Z,4.87
2023-02-09T14:08:07.913Z,4.87
2023-02-09T14:10:34.550Z,5.03
2023-02-09T14:13:05.052Z,5.33
2023-02-09T14:15:51.652Z,4.80
2023-02-09T14:18:38.395Z,5.03
2023-02-09T14:21:10.936Z,5.57
2023-02-09T14:23:37.842Z,5.17
2023-02-09T14:26:05.843Z,5.43
2023-02-09T14:28:32.729Z,5.80
2023-02-09T14:30:59.296Z,5.97
2023-02-09T14:33:28.709Z,6.77
2023-02-09T14:35:56.091Z,6.33
2023-02-09T14:38:33.891Z,6.87
2023-02-09T14:41:00.388Z,6.60
2023-02-09T14:43:27.419Z,6.30
2023-02-09T14:46:01.195Z,5.77
2023-02-09T14:48:28.202Z,6.37
2023-02-09T14:50:58.320Z,6.87
2023-02-09T14:53:25.168Z,6.60
2023-02-09T14:55:51.647Z,6.97
2023-02-09T14:58:25.214Z,7.73
2023-02-09T15:00:51.979Z,6.50
2023-02-09T15:03:18.560Z,7.47
2023-02-09T15:05:45.274Z,6.87
2023-02-09T15:08:14.541Z,7.00
2023-02-09T15:10:44.659Z,6.80
2023-02-09T15:13:12.239Z,7.70
2023-02-09T15:15:39.861Z,7.50
2023-02-09T15:18:06.496Z,7.67
2023-02-09T15:20:32.982Z,7.47
2023-02-09T15:23:00.812Z,7.00
2023-02-09T15:25:27.442Z,8.70
2023-02-09T15:27:56.683Z,8.53
2023-02-09T15:30:24.277Z,8.57
2023-02-09T15:32:50.775Z,8.87
2023-02-09T15:35:18.357Z,8.20
2023-02-09T15:37:52.109Z,8.90
2023-02-09T15:40:41.697Z,9.77
2023-02-09T15:43:30.395Z,10.50
2023-02-09T15:46:15.499Z,9.57
2023-02-09T15:48:42.170Z,10.10
2023-02-09T15:51:08.814Z,9.20
2023-02-09T15:53:36.261Z,9.90
2023-02-09T15:56:02.796Z,9.90
2023-02-09T15:58:35.867Z,11.40
2023-02-09T16:01:02.886Z,10.30
2023-02-09T16:03:31.720Z,10.50
2023-02-09T16:06:02.226Z,11.30
2023-02-09T16:08:30.392Z,11.83
2023-02-09T16:10:57.020Z,12.23
2023-02-09T16:13:23.628Z,13.77
2023-02-09T16:15:50.211Z,12.67
2023-02-09T16:18:16.720Z,12.43
2023-02-09T16:20:47.105Z,11.97
2023-02-09T16:23:23.191Z,10.87
2023-02-09T16:25:50.356Z,11.10
2023-02-09T16:28:16.935Z,10.83
2023-02-09T16:30:51.144Z,12.73
2023-02-09T16:33:18.415Z,12.60
2023-02-09T16:35:45.645Z,13.93
2023-02-09T16:38:15.523Z,14.23
2023-02-09T16:40:42.072Z,14.27
2023-02-09T16:43:08.741Z,14.83
2023-02-09T16:45:35.379Z,14.97
2023-02-09T16:48:01.972Z,15.57
2023-02-09T16:50:32.970Z,17.13
2023-02-09T16:53:00.440Z,18.60
2023-02-09T16:55:26.960Z,21.93
2023-02-09T16:57:54.987Z,23.13
2023-02-09T17:00:25.422Z,25.83
2023-02-09T17:02:59.717Z,27.20
2023-02-09T17:10:46.306Z,32.67
2023-02-09T17:13:12.899Z,33.90
2023-02-09T17:15:43.228Z,34.77
2023-02-09T17:18:09.966Z,35.23
2023-02-09T17:20:46.793Z,35.20
2023-02-09T17:23:17.540Z,33.83
2023-02-09T17:25:44.881Z,33.83
2023-02-09T17:28:11.786Z,33.07
2023-02-09T17:30:38.377Z,33.57
2023-02-09T17:33:06.353Z,32.67
2023-02-09T17:36:03.606Z,32.43
2023-02-09T17:38:22.881Z,33.67
2023-02-09T17:40:50.014Z,34.17
2023-02-09T17:43:16.602Z,35.00
2023-02-09T17:45:48.028Z,35.30
2023-02-09T17:48:15.276Z,32.97
2023-02-09T17:50:44.815Z,31.80
2023-02-09T17:53:14.471Z,31.73
2023-02-09T17:55:41.231Z,30.80
2023-02-09T17:58:07.729Z,32.03
2023-02-09T18:00:34.442Z,30.40
2023-02-09T18:03:01.181Z,31.87
2023-02-09T18:05:28.327Z,30.90
2023-02-09T18:07:54.941Z,34.87
2023-02-09T18:10:22.131Z,32.80
2023-02-09T18:12:48.810Z,33.47
2023-02-09T18:15:22.789Z,30.07
2023-02-09T18:17:49.523Z,27.97
2023-02-09T18:20:17.240Z,29.83
2023-02-09T18:22:45.283Z,29.03
2023-02-09T18:25:19.953Z,28.80
2023-02-09T18:27:46.700Z,28.27
2023-02-09T18:30:13.488Z,29.67
2023-02-09T18:32:40.366Z,30.20
2023-02-09T18:35:07.280Z,31.90
2023-02-09T18:37:33.779Z,29.23
2023-02-09T18:40:00.425Z,27.13
2023-02-09T18:42:27.049Z,28.73
2023-02-09T18:44:53.954Z,27.50
2023-02-09T18:47:21.016Z,25.63
2023-02-09T18:49:48.465Z,25.77
2023-02-09T18:52:17.138Z,26.63
2023-02-09T18:54:43.746Z,24.87
2023-02-09T18:57:10.396Z,24.83
2023-02-09T18:59:37.278Z,23.97
2023-02-09T19:02:03.925Z,23.57
2023-02-09T19:04:30.607Z,24.40
2023-02-09T19:06:57.531Z,24.20
2023-02-09T19:09:24.165Z,25.37
2023-02-09T19:11:51.091Z,25.00
2023-02-09T19:14:36.104Z,24.10
2023-02-09T19:17:02.747Z,25.47
2023-02-09T19:19:29.476Z,26.50
2023-02-09T19:21:57.896Z,26.27
2023-02-09T19:24:24.458Z,26.80
2023-02-09T19:26:51.075Z,26.63
2023-02-09T19:29:17.626Z,25.90
2023-02-09T19:31:44.285Z,25.40
2023-02-09T19:34:10.875Z,25.90
2023-02-09T19:36:37.478Z,26.57
2023-02-09T19:39:04.146Z,26.47
2023-02-09T19:41:30.674Z,26.37
2023-02-09T19:43:57.465Z,25.60
2023-02-09T19:46:24.395Z,25.60
2023-02-09T19:48:53.922Z,25.67
2023-02-09T19:51:20.546Z,25.97
2023-02-09T19:53:47.207Z,27.07
2023-02-09T19:56:14.454Z,26.97
2023-02-09T19:58:41.022Z,26.67
2023-02-09T20:01:08.445Z,26.73
2023-02-09T20:03:35.385Z,25.00
2023-02-09T20:06:05.011Z,25.10
2023-02-09T20:08:31.801Z,25.97
2023-02-09T20:10:58.388Z,25.40
2023-02-09T20:13:25.060Z,24.77
2023-02-09T20:15:51.849Z,25.10
2023-02-09T20:18:19.761Z,25.50
2023-02-09T20:20:46.678Z,24.70
2023-02-09T20:23:15.592Z,23.87
2023-02-09T20:25:45.263Z,22.83
2023-02-09T20:28:15.112Z,22.87
2023-02-09T20:30:42.629Z,22.13
2023-02-09T20:33:10.807Z,22.47
2023-02-09T20:35:44.034Z,21.30
2023-02-09T20:38:10.836Z,22.33
2023-02-09T20:40:37.554Z,22.53
2023-02-09T20:43:22.806Z,21.57
2023-02-09T20:46:08.134Z,22.77
2023-02-09T20:48:34.697Z,23.43
2023-02-09T20:51:02.382Z,23.27
2023-02-09T20:53:30.031Z,23.87
2023-02-09T20:55:58.671Z,23.57
2023-02-09T20:58:25.254Z,26.13
2023-02-09T21:00:52.263Z,30.73
2023-02-09T21:03:19.044Z,29.97
2023-02-09T21:05:45.627Z,29.70
2023-02-09T21:08:12.148Z,28.43
2023-02-09T21:10:38.874Z,25.77
2023-02-09T21:13:05.863Z,22.67
2023-02-09T21:15:33.800Z,22.67
2023-02-09T21:18:00.470Z,21.50
2023-02-09T21:20:27.057Z,19.57
2023-02-09T21:22:53.692Z,20.07
2023-02-09T21:25:20.257Z,19.50
2023-02-09T21:27:47.500Z,17.47
2023-02-09T21:30:16.002Z,18.77
2023-02-09T21:32:42.848Z,17.90
2023-02-09T21:35:10.459Z,18.00
2023-02-09T21:37:41.118Z,17.67
2023-02-09T21:40:07.916Z,18.90
2023-02-09T21:42:36.890Z,21.73
2023-02-09T21:45:03.612Z,20.77
2023-02-09T21:47:30.968Z,21.33
2023-02-09T21:49:57.666Z,22.53
2023-02-09T21:52:24.315Z,21.57
2023-02-09T21:54:51.032Z,20.07
2023-02-09T21:57:17.542Z,18.40
2023-02-09T21:59:44.066Z,19.10
2023-02-09T22:02:14.823Z,17.00
2023-02-09T22:04:41.703Z,18.13
2023-02-09T22:07:08.590Z,18.33
2023-02-09T22:09:38.581Z,17.67
2023-02-09T22:12:05.243Z,18.50
2023-02-09T22:14:31.828Z,17.90
2023-02-09T22:16:58.476Z,17.17
2023-02-09T22:19:25.215Z,18.23
2023-02-09T22:21:51.990Z,18.00
2023-02-09T22:24:19.242Z,18.73
2023-02-09T22:26:45.954Z,19.53
2023-02-09T22:29:13.054Z,21.63
2023-02-09T22:31:39.671Z,18.80
2023-02-09T22:34:07.388Z,18.40
2023-02-09T22:36:34.504Z,17.97
2023-02-09T22:39:01.378Z,18.63
2023-02-09T22:41:27.940Z,18.67
2023-02-09T22:43:54.662Z,17.93
2023-02-09T22:46:21.713Z,18.80
2023-02-09T22:48:55.008Z,18.67
2023-02-09T22:51:21.752Z,19.83
2023-02-09T22:53:48.286Z,19.60
2023-02-09T22:56:14.822Z,19.57
2023-02-09T22:58:41.392Z,19.63
2023-02-09T23:01:07.983Z,19.93
2023-02-09T23:03:34.613Z,18.93
2023-02-09T23:06:04.627Z,18.13
2023-02-09T23:08:31.206Z,17.10
2023-02-09T23:11:16.727Z,18.67
2023-02-09T23:13:43.488Z,17.10
2023-02-09T23:16:11.051Z,16.60
2023-02-09T23:18:37.863Z,17.20
2023-02-09T23:21:05.110Z,17.33
2023-02-09T23:23:31.684Z,17.10
2023-02-09T23:25:58.189Z,17.37
2023-02-09T23:28:25.072Z,15.40
2023-02-09T23:30:51.643Z,16.93
2023-02-09T23:33:18.402Z,16.03
2023-02-09T23:35:45.067Z,15.67
2023-02-09T23:38:11.646Z,15.37
2023-02-09T23:40:38.738Z,15.23
2023-02-09T23:43:05.356Z,14.93
2023-02-09T23:45:32.074Z,15.30
2023-02-09T23:47:58.582Z,14.77
2023-02-09T23:50:26.022Z,15.17
2023-02-09T23:52:52.617Z,16.13
2023-02-09T23:55:19.270Z,14.47
2023-02-09T23:57:45.776Z,15.33
